createdAt,value
2019-01-13T00:00:58.010Z,999.89
2019-01-13T00:01:57.931Z,999.89
2019-01-13T00:02:57.947Z,999.83
2019-01-13T00:03:58.811Z,999.79
2019-01-13T00:04:57.857Z,999.79
2019-01-13T00:05:57.844Z,999.81
2019-01-13T00:06:57.761Z,999.82
2019-01-13T00:07:57.735Z,999.83
2019-01-13T00:08:57.897Z,999.80
2019-01-13T00:09:57.663Z,999.83
2019-01-13T00:10:57.660Z,999.73
2019-01-13T00:11:57.593Z,999.76
2019-01-13T00:12:57.885Z,999.74
2019-01-13T00:13:57.527Z,999.72
2019-01-13T00:14:57.498Z,999.77
2019-01-13T00:15:57.464Z,999.70
2019-01-13T00:16:58.316Z,999.81
2019-01-13T00:17:57.449Z,999.71
2019-01-13T00:18:57.363Z,999.70
2019-01-13T00:19:57.333Z,999.73
2019-01-13T00:20:57.817Z,999.70
2019-01-13T00:21:57.407Z,999.76
2019-01-13T00:22:57.266Z,999.79
2019-01-13T00:23:57.208Z,999.69
2019-01-13T00:24:57.193Z,999.76
2019-01-13T00:25:57.183Z,999.77
2019-01-13T00:26:57.113Z,999.78
2019-01-13T00:27:57.114Z,999.78
2019-01-13T00:28:57.819Z,999.80
2019-01-13T00:29:57.012Z,999.82
2019-01-13T00:30:56.984Z,999.78
2019-01-13T00:31:56.945Z,999.73
2019-01-13T00:32:56.945Z,999.84
2019-01-13T00:33:56.886Z,999.83
2019-01-13T00:34:56.888Z,999.88
2019-01-13T00:35:56.814Z,999.84
2019-01-13T00:36:56.779Z,999.92
2019-01-13T00:37:56.867Z,999.92
2019-01-13T00:38:56.753Z,999.94
2019-01-13T00:39:56.719Z,999.94
2019-01-13T00:40:56.644Z,999.98
2019-01-13T00:41:56.612Z,999.96
2019-01-13T00:42:56.577Z,999.97
2019-01-13T00:43:56.602Z,1000.02
2019-01-13T00:44:56.568Z,1000.00
2019-01-13T00:45:56.479Z,999.95
2019-01-13T00:46:56.444Z,999.97
2019-01-13T00:47:56.415Z,1000.00
2019-01-13T00:48:56.376Z,999.93
2019-01-13T00:49:56.448Z,999.98
2019-01-13T00:50:56.311Z,999.99
2019-01-13T00:51:56.287Z,999.86
2019-01-13T00:52:56.250Z,1000.00
2019-01-13T00:53:56.217Z,999.96
2019-01-13T00:54:56.234Z,1000.09
2019-01-13T00:55:56.147Z,1000.10
2019-01-13T00:56:56.118Z,1000.21
2019-01-13T00:57:56.085Z,1000.11
2019-01-13T00:58:56.047Z,1000.09
2019-01-13T00:59:56.072Z,1000.06
2019-01-13T01:00:56.819Z,1000.01
2019-01-13T01:01:55.951Z,1000.05
2019-01-13T01:02:55.917Z,1000.01
2019-01-13T01:03:55.879Z,999.97
2019-01-13T01:04:56.384Z,999.86
2019-01-13T01:05:55.816Z,1000.10
2019-01-13T01:06:55.782Z,999.98
2019-01-13T01:07:55.755Z,999.91
2019-01-13T01:08:55.719Z,999.95
2019-01-13T01:09:55.723Z,999.96
2019-01-13T01:10:55.711Z,999.91
2019-01-13T01:11:55.616Z,1000.02
2019-01-13T01:12:56.948Z,999.97
2019-01-13T01:13:55.556Z,999.97
2019-01-13T01:14:55.527Z,999.97
2019-01-13T01:15:55.557Z,1000.04
2019-01-13T01:16:55.453Z,999.99
2019-01-13T01:17:55.428Z,1000.05
2019-01-13T01:18:56.318Z,1000.12
2019-01-13T01:19:55.359Z,1000.17
2019-01-13T01:20:55.362Z,1000.09
2019-01-13T01:21:55.292Z,1000.03
2019-01-13T01:22:55.818Z,1000.01
2019-01-13T01:23:55.227Z,1000.03
2019-01-13T01:24:55.193Z,1000.06
2019-01-13T01:25:55.443Z,1000.10
2019-01-13T01:26:55.828Z,1000.04
2019-01-13T01:27:55.137Z,1000.06
2019-01-13T01:28:55.057Z,1000.05
2019-01-13T01:29:55.030Z,1000.05
2019-01-13T01:30:55.821Z,1000.10
2019-01-13T01:31:54.964Z,1000.06
2019-01-13T01:32:54.980Z,1000.03
2019-01-13T01:33:55.019Z,999.99
2019-01-13T01:34:54.867Z,999.99
2019-01-13T01:35:54.833Z,1000.00
2019-01-13T01:36:54.797Z,1000.03
2019-01-13T01:37:54.804Z,1000.04
2019-01-13T01:38:55.322Z,1000.00
2019-01-13T01:39:54.711Z,1000.07
2019-01-13T01:40:54.753Z,1000.07
2019-01-13T01:41:54.628Z,1000.09
2019-01-13T01:42:54.594Z,1000.11
2019-01-13T01:43:55.321Z,1000.08
2019-01-13T01:44:54.534Z,1000.18
2019-01-13T01:45:54.533Z,1000.15
2019-01-13T01:46:54.466Z,1000.06
2019-01-13T01:47:55.323Z,1000.15
2019-01-13T01:48:54.438Z,1000.12
2019-01-13T01:49:54.363Z,1000.14
2019-01-13T01:50:54.336Z,1000.17
2019-01-13T01:51:54.822Z,1000.16
2019-01-13T01:52:54.321Z,1000.18
2019-01-13T01:53:54.233Z,1000.22
2019-01-13T01:54:54.249Z,1000.18
2019-01-13T01:55:54.166Z,1000.12
2019-01-13T01:56:54.144Z,1000.18
2019-01-13T01:57:54.103Z,1000.15
2019-01-13T01:58:54.067Z,1000.13
2019-01-13T01:59:54.076Z,1000.13
2019-01-13T02:00:56.016Z,1000.15
2019-01-13T02:01:54.028Z,1000.11
2019-01-13T02:02:53.936Z,1000.11
2019-01-13T02:03:53.935Z,1000.10
2019-01-13T02:04:53.889Z,1000.10
2019-01-13T02:05:54.393Z,1000.09
2019-01-13T02:06:53.808Z,1000.10
2019-01-13T02:07:53.777Z,1000.13
2019-01-13T02:08:53.745Z,1000.02
2019-01-13T02:09:53.708Z,1000.12
2019-01-13T02:10:53.712Z,1000.08
2019-01-13T02:11:53.652Z,1000.15
2019-01-13T02:12:53.605Z,1000.08
2019-01-13T02:13:53.570Z,1000.07
2019-01-13T02:14:53.597Z,1000.04
2019-01-13T02:15:53.574Z,1000.05
2019-01-13T02:16:53.472Z,999.99
2019-01-13T02:17:53.441Z,1000.03
2019-01-13T02:18:53.406Z,1000.02
2019-01-13T02:19:53.382Z,999.99
2019-01-13T02:20:53.388Z,1000.03
2019-01-13T02:21:53.375Z,1000.07
2019-01-13T02:22:53.276Z,999.98
2019-01-13T02:23:53.240Z,1000.00
2019-01-13T02:24:53.825Z,1000.08
2019-01-13T02:25:53.212Z,1000.00
2019-01-13T02:26:53.186Z,1000.02
2019-01-13T02:27:53.110Z,1000.05
2019-01-13T02:28:53.079Z,1000.00
2019-01-13T02:29:53.043Z,1000.01
2019-01-13T02:30:53.014Z,999.95
2019-01-13T02:31:53.107Z,999.97
2019-01-13T02:32:53.114Z,999.99
2019-01-13T02:33:52.985Z,999.99
2019-01-13T02:34:52.897Z,999.95
2019-01-13T02:35:52.844Z,999.98
2019-01-13T02:36:52.812Z,999.96
2019-01-13T02:37:52.885Z,999.96
2019-01-13T02:38:52.752Z,999.96
2019-01-13T02:39:52.754Z,999.98
2019-01-13T02:40:52.682Z,999.98
2019-01-13T02:41:52.649Z,999.98
2019-01-13T02:42:53.412Z,999.91
2019-01-13T02:43:52.590Z,999.88
2019-01-13T02:44:52.553Z,999.90
2019-01-13T02:45:52.514Z,999.88
2019-01-13T02:46:53.324Z,999.87
2019-01-13T02:47:52.500Z,999.85
2019-01-13T02:48:52.418Z,999.82
2019-01-13T02:49:52.384Z,999.79
2019-01-13T02:50:52.348Z,999.82
2019-01-13T02:51:52.361Z,999.82
2019-01-13T02:52:52.288Z,999.83
2019-01-13T02:53:52.305Z,999.77
2019-01-13T02:54:52.222Z,999.75
2019-01-13T02:55:52.207Z,999.73
2019-01-13T02:56:52.154Z,999.77
2019-01-13T02:57:52.118Z,999.73
2019-01-13T02:58:52.121Z,999.75
2019-01-13T02:59:52.109Z,999.71
2019-01-13T03:00:57.087Z,999.71
2019-01-13T03:01:51.990Z,999.66
2019-01-13T03:02:51.955Z,999.76
2019-01-13T03:03:51.921Z,999.73
2019-01-13T03:04:51.960Z,999.77
2019-01-13T03:05:51.863Z,999.74
2019-01-13T03:06:51.832Z,999.75
2019-01-13T03:07:52.334Z,999.69
2019-01-13T03:08:51.752Z,999.72
2019-01-13T03:09:51.781Z,999.76
2019-01-13T03:10:51.695Z,999.71
2019-01-13T03:11:51.719Z,999.69
2019-01-13T03:12:51.623Z,999.74
2019-01-13T03:13:51.596Z,999.72
2019-01-13T03:14:51.588Z,999.76
2019-01-13T03:15:51.525Z,999.81
2019-01-13T03:16:51.531Z,999.83
2019-01-13T03:17:51.459Z,999.78
2019-01-13T03:18:51.429Z,999.79
2019-01-13T03:19:51.406Z,999.78
2019-01-13T03:20:51.402Z,999.78
2019-01-13T03:21:51.344Z,999.77
2019-01-13T03:22:51.304Z,999.75
2019-01-13T03:23:51.264Z,999.79
2019-01-13T03:24:51.246Z,999.75
2019-01-13T03:25:51.243Z,999.72
2019-01-13T03:26:51.190Z,999.74
2019-01-13T03:27:51.136Z,999.72
2019-01-13T03:28:51.147Z,999.66
2019-01-13T03:29:51.093Z,999.73
2019-01-13T03:30:51.033Z,999.72
2019-01-13T03:31:50.999Z,999.72
2019-01-13T03:32:50.970Z,999.72
2019-01-13T03:33:50.979Z,999.74
2019-01-13T03:34:50.915Z,999.74
2019-01-13T03:35:50.892Z,999.72
2019-01-13T03:36:50.836Z,999.75
2019-01-13T03:37:50.853Z,999.74
2019-01-13T03:38:50.771Z,999.73
2019-01-13T03:39:50.730Z,999.71
2019-01-13T03:40:50.749Z,999.69
2019-01-13T03:41:50.669Z,999.73
2019-01-13T03:42:50.671Z,999.72
2019-01-13T03:43:50.645Z,999.67
2019-01-13T03:44:50.565Z,999.66
2019-01-13T03:45:50.601Z,999.64
2019-01-13T03:46:50.511Z,999.70
2019-01-13T03:47:50.476Z,999.65
2019-01-13T03:48:50.434Z,999.69
2019-01-13T03:49:50.472Z,999.68
2019-01-13T03:50:50.417Z,999.76
2019-01-13T03:51:50.341Z,999.73
2019-01-13T03:52:53.101Z,999.72
2019-01-13T03:53:50.271Z,999.70
2019-01-13T03:54:50.238Z,999.69
2019-01-13T03:55:50.390Z,999.71
2019-01-13T03:56:50.177Z,999.67
2019-01-13T03:57:50.155Z,999.62
2019-01-13T03:58:50.114Z,999.61
2019-01-13T03:59:50.112Z,999.70
2019-01-13T04:00:50.085Z,999.69
2019-01-13T04:01:50.007Z,999.68
2019-01-13T04:02:49.973Z,999.62
2019-01-13T04:03:49.980Z,999.64
2019-01-13T04:04:49.914Z,999.68
2019-01-13T04:05:49.917Z,999.66
2019-01-13T04:06:49.891Z,999.63
2019-01-13T04:07:49.822Z,999.62
2019-01-13T04:08:49.782Z,999.59
2019-01-13T04:09:49.746Z,999.63
2019-01-13T04:10:49.715Z,999.65
2019-01-13T04:11:49.727Z,999.59
2019-01-13T04:12:49.644Z,999.56
2019-01-13T04:13:49.618Z,999.57
2019-01-13T04:14:49.606Z,999.58
2019-01-13T04:15:49.545Z,999.53
2019-01-13T04:16:49.551Z,999.54
2019-01-13T04:17:49.482Z,999.50
2019-01-13T04:18:49.462Z,999.42
2019-01-13T04:19:49.414Z,999.41
2019-01-13T04:20:49.381Z,999.46
2019-01-13T04:21:49.393Z,999.41
2019-01-13T04:22:49.319Z,999.39
2019-01-13T04:23:49.283Z,999.41
2019-01-13T04:24:49.255Z,999.36
2019-01-13T04:25:49.215Z,999.35
2019-01-13T04:26:49.231Z,999.34
2019-01-13T04:27:49.149Z,999.39
2019-01-13T04:28:49.190Z,999.33
2019-01-13T04:29:49.086Z,999.34
2019-01-13T04:30:49.053Z,999.39
2019-01-13T04:31:49.080Z,999.39
2019-01-13T04:32:49.031Z,999.31
2019-01-13T04:33:48.998Z,999.30
2019-01-13T04:34:48.935Z,999.27
2019-01-13T04:35:48.898Z,999.28
2019-01-13T04:36:48.858Z,999.27
2019-01-13T04:37:48.881Z,999.31
2019-01-13T04:38:48.796Z,999.26
2019-01-13T04:39:48.762Z,999.24
2019-01-13T04:40:48.721Z,999.25
2019-01-13T04:41:48.700Z,999.24
2019-01-13T04:42:48.715Z,999.25
2019-01-13T04:43:48.627Z,999.18
2019-01-13T04:44:48.591Z,999.25
2019-01-13T04:45:48.559Z,999.23
2019-01-13T04:46:48.627Z,999.28
2019-01-13T04:47:48.542Z,999.29
2019-01-13T04:48:48.475Z,999.25
2019-01-13T04:49:48.472Z,999.27
2019-01-13T04:50:48.391Z,999.27
2019-01-13T04:51:48.359Z,999.27
2019-01-13T04:52:48.338Z,999.28
2019-01-13T04:53:48.293Z,999.22
2019-01-13T04:54:48.309Z,999.26
2019-01-13T04:55:48.274Z,999.22
2019-01-13T04:56:48.197Z,999.17
2019-01-13T04:57:48.167Z,999.20
2019-01-13T04:58:48.174Z,999.27
2019-01-13T04:59:48.095Z,999.23
2019-01-13T05:00:48.112Z,999.20
2019-01-13T05:01:48.079Z,999.22
2019-01-13T05:02:48.000Z,999.19
2019-01-13T05:03:47.976Z,999.17
2019-01-13T05:04:47.989Z,999.22
2019-01-13T05:05:47.896Z,999.18
2019-01-13T05:06:47.867Z,999.17
2019-01-13T05:07:47.850Z,999.13
2019-01-13T05:08:47.840Z,999.09
2019-01-13T05:09:47.788Z,999.09
2019-01-13T05:10:47.794Z,999.08
2019-01-13T05:11:47.713Z,999.11
2019-01-13T05:12:47.671Z,999.14
2019-01-13T05:13:47.644Z,999.17
2019-01-13T05:14:47.608Z,999.17
2019-01-13T05:15:47.614Z,999.15
2019-01-13T05:16:47.682Z,999.15
2019-01-13T05:17:47.524Z,999.13
2019-01-13T05:18:47.522Z,999.11
2019-01-13T05:19:47.437Z,999.09
2019-01-13T05:20:47.425Z,999.13
2019-01-13T05:21:47.403Z,999.10
2019-01-13T05:22:47.343Z,999.17
2019-01-13T05:23:47.351Z,999.15
2019-01-13T05:24:47.275Z,999.13
2019-01-13T05:25:47.250Z,999.12
2019-01-13T05:26:47.233Z,999.12
2019-01-13T05:27:47.214Z,999.11
2019-01-13T05:28:47.297Z,999.10
2019-01-13T05:29:47.114Z,999.08
2019-01-13T05:30:47.077Z,999.09
2019-01-13T05:31:47.063Z,999.08
2019-01-13T05:32:47.014Z,999.05
2019-01-13T05:33:47.029Z,999.04
2019-01-13T05:34:46.944Z,999.04
2019-01-13T05:35:46.957Z,999.02
2019-01-13T05:36:46.912Z,999.04
2019-01-13T05:37:46.846Z,999.06
2019-01-13T05:38:46.819Z,999.04
2019-01-13T05:39:46.780Z,999.02
2019-01-13T05:40:46.810Z,999.05
2019-01-13T05:41:46.736Z,998.99
2019-01-13T05:42:46.692Z,998.99
2019-01-13T05:43:46.652Z,998.97
2019-01-13T05:44:46.624Z,998.93
2019-01-13T05:45:46.642Z,998.90
2019-01-13T05:46:46.602Z,998.95
2019-01-13T05:47:46.520Z,998.95
2019-01-13T05:48:46.488Z,998.93
2019-01-13T05:49:46.468Z,998.86
2019-01-13T05:50:46.478Z,998.88
2019-01-13T05:51:46.402Z,998.83
2019-01-13T05:52:46.369Z,998.86
2019-01-13T05:53:46.326Z,998.84
2019-01-13T05:54:46.295Z,998.83
2019-01-13T05:55:46.308Z,998.82
2019-01-13T05:56:46.233Z,998.78
2019-01-13T05:57:46.191Z,998.73
2019-01-13T05:58:46.161Z,998.78
2019-01-13T05:59:46.127Z,998.75
2019-01-13T06:00:46.136Z,998.71
2019-01-13T06:01:49.311Z,998.68
2019-01-13T06:02:46.046Z,998.73
2019-01-13T06:03:46.863Z,998.72
2019-01-13T06:04:45.968Z,998.69
2019-01-13T06:05:45.984Z,998.66
2019-01-13T06:06:45.943Z,998.65
2019-01-13T06:07:45.865Z,998.62
2019-01-13T06:08:45.828Z,998.64
2019-01-13T06:09:45.801Z,998.59
2019-01-13T06:10:45.765Z,998.60
2019-01-13T06:11:45.778Z,998.63
2019-01-13T06:12:45.700Z,998.60
2019-01-13T06:13:45.671Z,998.64
2019-01-13T06:14:45.671Z,998.58
2019-01-13T06:15:45.834Z,998.56
2019-01-13T06:16:45.616Z,998.55
2019-01-13T06:17:45.539Z,998.59
2019-01-13T06:18:45.510Z,998.51
2019-01-13T06:19:45.469Z,998.53
2019-01-13T06:20:45.455Z,998.49
2019-01-13T06:21:45.452Z,998.57
2019-01-13T06:22:45.373Z,998.55
2019-01-13T06:23:45.372Z,998.49
2019-01-13T06:24:45.308Z,998.55
2019-01-13T06:25:45.276Z,998.50
2019-01-13T06:26:45.304Z,998.51
2019-01-13T06:27:45.212Z,998.47
2019-01-13T06:28:45.180Z,998.51
2019-01-13T06:29:45.143Z,998.51
2019-01-13T06:30:45.117Z,998.47
2019-01-13T06:31:45.122Z,998.49
2019-01-13T06:32:45.099Z,998.52
2019-01-13T06:33:45.035Z,998.49
2019-01-13T06:34:44.981Z,998.50
2019-01-13T06:35:44.947Z,998.53
2019-01-13T06:36:44.920Z,998.48
2019-01-13T06:37:44.926Z,998.56
2019-01-13T06:38:44.919Z,998.53
2019-01-13T06:39:44.819Z,998.50
2019-01-13T06:40:44.801Z,998.51
2019-01-13T06:41:44.752Z,998.51
2019-01-13T06:42:44.717Z,998.49
2019-01-13T06:43:44.732Z,998.49
2019-01-13T06:44:44.654Z,998.45
2019-01-13T06:45:44.630Z,998.44
2019-01-13T06:46:44.589Z,998.42
2019-01-13T06:47:44.607Z,998.46
2019-01-13T06:48:44.524Z,998.50
2019-01-13T06:49:44.549Z,998.48
2019-01-13T06:50:44.460Z,998.50
2019-01-13T06:51:44.428Z,998.50
2019-01-13T06:52:44.393Z,998.49
2019-01-13T06:53:44.380Z,998.57
2019-01-13T06:54:44.381Z,998.64
2019-01-13T06:55:44.295Z,998.64
2019-01-13T06:56:44.259Z,998.61
2019-01-13T06:57:44.227Z,998.65
2019-01-13T06:58:44.202Z,998.62
2019-01-13T06:59:44.222Z,998.64
2019-01-13T07:00:44.128Z,998.58
2019-01-13T07:01:44.134Z,998.67
2019-01-13T07:02:44.066Z,998.65
2019-01-13T07:03:44.037Z,998.60
2019-01-13T07:04:44.063Z,998.64
2019-01-13T07:05:44.004Z,998.60
2019-01-13T07:06:43.936Z,998.57
2019-01-13T07:07:43.900Z,998.56
2019-01-13T07:08:43.882Z,998.55
2019-01-13T07:09:43.884Z,998.53
2019-01-13T07:10:43.806Z,998.51
2019-01-13T07:11:43.774Z,998.47
2019-01-13T07:12:43.782Z,998.40
2019-01-13T07:13:43.707Z,998.41
2019-01-13T07:14:43.678Z,998.33
2019-01-13T07:15:43.682Z,998.34
2019-01-13T07:16:43.609Z,998.33
2019-01-13T07:17:43.621Z,998.28
2019-01-13T07:18:43.543Z,998.26
2019-01-13T07:19:43.514Z,998.26
2019-01-13T07:20:43.529Z,998.28
2019-01-13T07:21:43.446Z,998.21
2019-01-13T07:22:43.454Z,998.13
2019-01-13T07:23:43.386Z,998.15
2019-01-13T07:24:43.355Z,998.09
2019-01-13T07:25:43.315Z,998.09
2019-01-13T07:26:43.287Z,998.04
2019-01-13T07:27:43.295Z,998.12
2019-01-13T07:28:43.220Z,998.11
2019-01-13T07:29:43.190Z,998.20
2019-01-13T07:30:43.210Z,998.08
2019-01-13T07:31:43.121Z,998.17
2019-01-13T07:32:43.086Z,998.06
2019-01-13T07:33:43.060Z,998.09
2019-01-13T07:34:43.022Z,998.13
2019-01-13T07:35:43.029Z,998.10
2019-01-13T07:36:42.968Z,998.10
2019-01-13T07:37:42.926Z,998.06
2019-01-13T07:38:42.937Z,998.08
2019-01-13T07:39:42.861Z,997.98
2019-01-13T07:40:43.371Z,997.96
2019-01-13T07:41:42.797Z,997.99
2019-01-13T07:42:42.761Z,997.94
2019-01-13T07:43:42.796Z,997.89
2019-01-13T07:44:42.731Z,997.86
2019-01-13T07:45:42.709Z,997.79
2019-01-13T07:46:42.629Z,997.79
2019-01-13T07:47:42.605Z,997.72
2019-01-13T07:48:42.577Z,997.75
2019-01-13T07:49:42.537Z,997.77
2019-01-13T07:50:42.650Z,997.74
2019-01-13T07:51:42.472Z,997.73
2019-01-13T07:52:42.439Z,997.76
2019-01-13T07:53:42.417Z,997.77
2019-01-13T07:54:42.381Z,997.68
2019-01-13T07:55:42.388Z,997.73
2019-01-13T07:56:42.338Z,997.61
2019-01-13T07:57:42.316Z,997.64
2019-01-13T07:58:42.246Z,997.70
2019-01-13T07:59:42.218Z,997.66
2019-01-13T08:00:42.228Z,997.63
2019-01-13T08:01:42.151Z,997.66
2019-01-13T08:02:42.118Z,997.65
2019-01-13T08:03:42.084Z,997.63
2019-01-13T08:04:42.060Z,997.56
2019-01-13T08:05:42.069Z,997.61
2019-01-13T08:06:42.012Z,997.54
2019-01-13T08:07:42.001Z,997.54
2019-01-13T08:08:41.934Z,997.55
2019-01-13T08:09:41.892Z,997.53
2019-01-13T08:10:41.857Z,997.51
2019-01-13T08:11:41.874Z,997.51
2019-01-13T08:12:41.833Z,997.49
2019-01-13T08:13:41.802Z,997.47
2019-01-13T08:14:41.815Z,997.54
2019-01-13T08:15:41.737Z,997.51
2019-01-13T08:16:41.666Z,997.45
2019-01-13T08:17:41.635Z,997.45
2019-01-13T08:18:41.646Z,997.47
2019-01-13T08:19:41.574Z,997.42
2019-01-13T08:20:41.536Z,997.43
2019-01-13T08:21:41.502Z,997.41
2019-01-13T08:22:41.512Z,997.40
2019-01-13T08:23:41.481Z,997.38
2019-01-13T08:24:41.412Z,997.38
2019-01-13T08:25:41.377Z,997.31
2019-01-13T08:26:41.347Z,997.33
2019-01-13T08:27:41.339Z,997.36
2019-01-13T08:28:41.325Z,997.28
2019-01-13T08:29:41.249Z,997.26
2019-01-13T08:30:41.216Z,997.29
2019-01-13T08:31:41.183Z,997.21
2019-01-13T08:32:41.156Z,997.18
2019-01-13T08:33:41.163Z,997.26
2019-01-13T08:34:41.641Z,997.18
2019-01-13T08:35:41.061Z,997.15
2019-01-13T08:36:41.029Z,997.18
2019-01-13T08:37:40.990Z,997.14
2019-01-13T08:38:41.004Z,997.10
2019-01-13T08:39:40.932Z,997.13
2019-01-13T08:40:40.903Z,997.10
2019-01-13T08:41:40.868Z,997.09
2019-01-13T08:42:40.834Z,997.08
2019-01-13T08:43:40.847Z,997.05
2019-01-13T08:44:40.772Z,997.02
2019-01-13T08:45:42.107Z,996.98
2019-01-13T08:46:40.705Z,996.99
2019-01-13T08:47:40.669Z,996.94
2019-01-13T08:48:40.682Z,996.96
2019-01-13T08:49:41.381Z,996.96
2019-01-13T08:50:40.617Z,996.88
2019-01-13T08:51:40.546Z,996.84
2019-01-13T08:52:40.521Z,996.80
2019-01-13T08:53:40.485Z,996.76
2019-01-13T08:54:40.503Z,996.74
2019-01-13T08:55:40.428Z,996.72
2019-01-13T08:56:40.383Z,996.73
2019-01-13T08:57:40.388Z,996.71
2019-01-13T08:58:40.327Z,996.70
2019-01-13T08:59:40.382Z,996.67
2019-01-13T09:00:40.303Z,996.76
2019-01-13T09:01:40.223Z,996.64
2019-01-13T09:02:40.199Z,996.59
2019-01-13T09:03:40.162Z,996.59
2019-01-13T09:04:40.132Z,996.53
2019-01-13T09:05:40.163Z,996.55
2019-01-13T09:06:40.068Z,996.55
2019-01-13T09:07:40.115Z,996.55
2019-01-13T09:08:40.052Z,996.55
2019-01-13T09:09:39.970Z,996.53
2019-01-13T09:10:39.949Z,996.55
2019-01-13T09:11:39.987Z,996.49
2019-01-13T09:12:39.877Z,996.52
2019-01-13T09:13:39.901Z,996.52
2019-01-13T09:14:39.862Z,996.44
2019-01-13T09:15:39.783Z,996.49
2019-01-13T09:16:39.751Z,996.48
2019-01-13T09:17:39.719Z,996.44
2019-01-13T09:18:39.726Z,996.48
2019-01-13T09:19:39.656Z,996.45
2019-01-13T09:20:39.621Z,996.41
2019-01-13T09:21:39.630Z,996.41
2019-01-13T09:22:39.562Z,996.35
2019-01-13T09:23:39.573Z,996.40
2019-01-13T09:24:39.534Z,996.35
2019-01-13T09:25:39.506Z,996.37
2019-01-13T09:26:39.436Z,996.35
2019-01-13T09:27:39.402Z,996.29
2019-01-13T09:28:39.370Z,996.22
2019-01-13T09:29:42.532Z,996.30
2019-01-13T09:30:39.357Z,996.24
2019-01-13T09:31:39.267Z,996.17
2019-01-13T09:32:39.689Z,996.19
2019-01-13T09:33:39.204Z,996.09
2019-01-13T09:34:39.178Z,996.12
2019-01-13T09:35:39.198Z,996.10
2019-01-13T09:36:39.156Z,996.10
2019-01-13T09:37:39.089Z,996.05
2019-01-13T09:38:39.113Z,996.06
2019-01-13T09:39:39.022Z,995.97
2019-01-13T09:40:38.983Z,995.94
2019-01-13T09:41:38.949Z,995.88
2019-01-13T09:42:38.993Z,995.90
2019-01-13T09:43:38.887Z,995.84
2019-01-13T09:44:38.863Z,995.76
2019-01-13T09:45:38.821Z,995.81
2019-01-13T09:46:38.836Z,995.74
2019-01-13T09:47:38.765Z,995.74
2019-01-13T09:48:38.915Z,995.80
2019-01-13T09:49:38.700Z,995.62
2019-01-13T09:50:38.676Z,995.68
2019-01-13T09:51:38.641Z,995.68
2019-01-13T09:52:38.594Z,995.58
2019-01-13T09:53:38.610Z,995.57
2019-01-13T09:54:38.532Z,995.56
2019-01-13T09:55:38.563Z,995.53
2019-01-13T09:56:38.470Z,995.51
2019-01-13T09:57:38.441Z,995.55
2019-01-13T09:58:38.408Z,995.54
2019-01-13T09:59:38.384Z,995.44
2019-01-13T10:00:38.396Z,995.43
2019-01-13T10:01:38.372Z,995.39
2019-01-13T10:02:38.278Z,995.41
2019-01-13T10:03:38.250Z,995.29
2019-01-13T10:04:38.243Z,995.25
2019-01-13T10:05:38.191Z,995.28
2019-01-13T10:06:38.215Z,995.17
2019-01-13T10:07:38.143Z,995.16
2019-01-13T10:08:38.132Z,995.12
2019-01-13T10:09:38.076Z,995.08
2019-01-13T10:10:38.054Z,995.07
2019-01-13T10:11:38.077Z,994.99
2019-01-13T10:12:38.165Z,994.98
2019-01-13T10:13:37.957Z,994.93
2019-01-13T10:14:37.948Z,994.96
2019-01-13T10:15:37.881Z,994.90
2019-01-13T10:16:37.850Z,994.87
2019-01-13T10:17:37.873Z,994.84
2019-01-13T10:18:37.844Z,994.75
2019-01-13T10:19:37.768Z,994.77
2019-01-13T10:20:37.726Z,994.66
2019-01-13T10:21:37.687Z,994.72
2019-01-13T10:22:37.657Z,994.64
2019-01-13T10:23:37.690Z,994.56
2019-01-13T10:24:37.623Z,994.63
2019-01-13T10:25:37.566Z,994.54
2019-01-13T10:26:37.533Z,994.49
2019-01-13T10:27:37.498Z,994.42
2019-01-13T10:28:37.534Z,994.42
2019-01-13T10:29:37.438Z,994.33
2019-01-13T10:30:37.406Z,994.38
2019-01-13T10:31:37.371Z,994.36
2019-01-13T10:32:37.340Z,994.33
2019-01-13T10:33:37.367Z,994.29
2019-01-13T10:34:37.368Z,994.25
2019-01-13T10:35:37.252Z,994.19
2019-01-13T10:36:37.214Z,994.14
2019-01-13T10:37:37.256Z,994.11
2019-01-13T10:38:37.162Z,994.10
2019-01-13T10:39:37.116Z,994.08
2019-01-13T10:40:37.078Z,994.04
2019-01-13T10:41:37.042Z,994.04
2019-01-13T10:42:37.049Z,994.02
2019-01-13T10:43:37.020Z,993.85
2019-01-13T10:44:36.954Z,993.90
2019-01-13T10:45:36.921Z,993.92
2019-01-13T10:46:36.927Z,993.87
2019-01-13T10:47:36.846Z,993.91
2019-01-13T10:48:36.817Z,993.87
2019-01-13T10:49:36.788Z,993.80
2019-01-13T10:50:36.758Z,993.72
2019-01-13T10:51:36.763Z,993.71
2019-01-13T10:52:36.694Z,993.65
2019-01-13T10:53:36.665Z,993.66
2019-01-13T10:54:36.633Z,993.64
2019-01-13T10:55:36.692Z,993.61
2019-01-13T10:56:36.568Z,993.59
2019-01-13T10:57:36.535Z,993.52
2019-01-13T10:58:36.517Z,993.53
2019-01-13T10:59:36.510Z,993.47
2019-01-13T11:00:36.487Z,993.40
2019-01-13T11:01:36.405Z,993.42
2019-01-13T11:02:36.418Z,993.35
2019-01-13T11:03:36.344Z,993.40
2019-01-13T11:04:36.316Z,993.34
2019-01-13T11:05:36.282Z,993.31
2019-01-13T11:06:36.245Z,993.24
2019-01-13T11:07:36.258Z,993.22
2019-01-13T11:08:36.231Z,993.19
2019-01-13T11:09:36.153Z,993.18
2019-01-13T11:10:36.168Z,993.14
2019-01-13T11:11:36.085Z,993.14
2019-01-13T11:12:36.058Z,993.12
2019-01-13T11:13:36.022Z,993.12
2019-01-13T11:14:35.992Z,993.04
2019-01-13T11:15:36.014Z,993.00
2019-01-13T11:16:36.000Z,992.93
2019-01-13T11:17:35.898Z,992.89
2019-01-13T11:18:35.875Z,992.81
2019-01-13T11:19:35.877Z,992.82
2019-01-13T11:20:35.805Z,992.87
2019-01-13T11:21:35.828Z,992.90
2019-01-13T11:22:36.314Z,992.94
2019-01-13T11:23:35.707Z,992.88
2019-01-13T11:24:35.677Z,992.90
2019-01-13T11:25:35.641Z,992.82
2019-01-13T11:26:35.653Z,992.79
2019-01-13T11:27:35.634Z,992.72
2019-01-13T11:28:35.546Z,992.62
2019-01-13T11:29:35.517Z,992.55
2019-01-13T11:30:35.534Z,992.46
2019-01-13T11:31:35.471Z,992.44
2019-01-13T11:32:35.478Z,992.47
2019-01-13T11:33:35.387Z,992.44
2019-01-13T11:34:35.383Z,992.38
2019-01-13T11:35:35.352Z,992.41
2019-01-13T11:36:35.300Z,992.37
2019-01-13T11:37:35.311Z,992.37
2019-01-13T11:38:35.254Z,992.31
2019-01-13T11:39:35.204Z,992.31
2019-01-13T11:40:35.270Z,992.28
2019-01-13T11:41:35.213Z,992.13
2019-01-13T11:42:35.104Z,992.14
2019-01-13T11:43:35.105Z,992.03
2019-01-13T11:44:35.052Z,991.88
2019-01-13T11:45:35.056Z,991.92
2019-01-13T11:46:34.983Z,991.86
2019-01-13T11:47:34.938Z,991.87
2019-01-13T11:48:34.969Z,991.85
2019-01-13T11:49:34.874Z,991.91
2019-01-13T11:50:34.840Z,991.84
2019-01-13T11:51:34.808Z,991.81
2019-01-13T11:52:34.776Z,991.80
2019-01-13T11:53:34.811Z,991.74
2019-01-13T11:54:34.737Z,991.77
2019-01-13T11:55:34.682Z,991.73
2019-01-13T11:56:34.648Z,991.73
2019-01-13T11:57:34.626Z,991.74
2019-01-13T11:58:34.646Z,991.71
2019-01-13T11:59:34.561Z,991.73
2019-01-13T12:00:34.520Z,991.73
2019-01-13T12:01:34.491Z,991.68
2019-01-13T12:02:34.459Z,991.62
2019-01-13T12:03:34.481Z,991.64
2019-01-13T12:04:34.398Z,991.55
2019-01-13T12:05:34.355Z,991.47
2019-01-13T12:06:34.328Z,991.47
2019-01-13T12:07:34.293Z,991.38
2019-01-13T12:08:34.313Z,991.36
2019-01-13T12:09:34.228Z,991.30
2019-01-13T12:10:34.199Z,991.19
2019-01-13T12:11:34.213Z,991.19
2019-01-13T12:12:34.133Z,991.25
2019-01-13T12:13:34.101Z,991.18
2019-01-13T12:14:34.113Z,991.20
2019-01-13T12:15:34.101Z,991.18
2019-01-13T12:16:34.006Z,991.07
2019-01-13T12:17:33.976Z,991.09
2019-01-13T12:18:40.351Z,991.08
2019-01-13T12:19:33.912Z,991.11
2019-01-13T12:20:33.938Z,991.06
2019-01-13T12:21:33.849Z,991.06
2019-01-13T12:22:33.865Z,991.05
2019-01-13T12:23:33.783Z,991.02
2019-01-13T12:24:33.751Z,990.98
2019-01-13T12:25:33.762Z,990.89